Fort Myers, FL (33905)

9:28 AM EDT on September 03, 2015 (GMT -0400)
Tice | | Change Station
CLOSE
Current Station
Personal Weather Station
Location: Fort Myers, FL
Elevation: 23 ft
Nearby Weather Stations

Elev 23 ft 26.67 °N, 81.80 °W | Updated 46 seconds ago

Clear
Clear
88.9 °F
Feels Like 102 °F
N
2.2
Wind Variable Wind from NE
Gusts 3.8 mph

Today
High -- | Low -- °F
--% Chance of Precip.
Yesterday
High -- | Low -- °F
Precip. -- in
7:07 AM 7:45 PM
Waning Gibbous, 70% visible
Pressure 30.01 in
Visibility 10.0 miles
Clouds Clear
Heat Index 102 °F
Dew Point 77 °F
Humidity 69%
Rainfall 0.00 in
Snow Depth Not available.
UV 2 out of 12
Pollen 4.20 out of 12
Air Quality Not available.
Flu Activity Not available.
METAR KFMY 031253Z 36005KT 10SM CLR 29/23 A3000 RMK AO2 SLP160 T02940228
Pressure 30.01 in
Visibility 10.0 miles
Clouds Clear
Heat Index 102 °F
Dew Point 77 °F
Humidity 69%
Rainfall 0.00 in
Snow Depth Not available.
UV 2 out of 12
Pollen 4.20 out of 12
Air Quality Not available.
Flu Activity Not available.
METAR KFMY 031253Z 36005KT 10SM CLR 29/23 A3000 RMK AO2 SLP160 T02940228

10-Day Weather Forecast

×

Almanac

Astronomy

Sep. 03, 2015 Rise Set
Actual Time
Civil Twilight
Nautical Twilight
Astronomical Twilight
Moon
Length of Visible Light
Length of Day
Tomorrow will be .
, % of the Moon is Illuminated

Today's Extremes

State Highs State Lows

Community

WunderPhotos

Upload Photos

1,851,953 photos uploaded!

WunderBlogs® & News

Nearby

Air Quality

  Air Quality AQ Index Pollutant
Not available.

Snow Depth

Station Depth Elevation

Earthquake Activity

City Distance Mag. Time & Date
Minimum magnitude displayed is 2.5.

Coastal Water Temperatures

Place Temperature

Stations

Nearby Weather Stations

Station Location Temp. Windchill Dew Point Humidity Wind Precip. Elev Updated Type